sensor_id;sensor_type;location;lat;lon;timestamp;P1;durP1;ratioP1;P2;durP2;ratioP2
37903;SDS011;23738;50.422;18.758;2022-08-02T00:00:13;4.10;;;3.75;;
37903;SDS011;23738;50.422;18.758;2022-08-02T00:02:41;4.00;;;3.60;;
37903;SDS011;23738;50.422;18.758;2022-08-02T00:05:08;4.30;;;3.90;;
37903;SDS011;23738;50.422;18.758;2022-08-02T00:07:34;4.80;;;3.98;;
37903;SDS011;23738;50.422;18.758;2022-08-02T00:10:00;4.42;;;4.00;;
37903;SDS011;23738;50.422;18.758;2022-08-02T00:12:28;3.90;;;3.60;;
37903;SDS011;23738;50.422;18.758;2022-08-02T00:14:54;3.58;;;3.27;;
37903;SDS011;23738;50.422;18.758;2022-08-02T00:17:19;4.60;;;4.20;;
37903;SDS011;23738;50.422;18.758;2022-08-02T00:19:45;4.30;;;3.90;;
37903;SDS011;23738;50.422;18.758;2022-08-02T00:22:11;7.60;;;4.17;;
37903;SDS011;23738;50.422;18.758;2022-08-02T00:24:37;5.72;;;3.75;;
37903;SDS011;23738;50.422;18.758;2022-08-02T00:27:03;14.23;;;4.47;;
37903;SDS011;23738;50.422;18.758;2022-08-02T00:29:31;3.70;;;3.37;;
37903;SDS011;23738;50.422;18.758;2022-08-02T00:31:57;4.58;;;3.80;;
37903;SDS011;23738;50.422;18.758;2022-08-02T00:34:23;8.93;;;4.25;;
37903;SDS011;23738;50.422;18.758;2022-08-02T00:36:49;4.92;;;4.20;;
37903;SDS011;23738;50.422;18.758;2022-08-02T00:39:14;5.37;;;4.60;;
37903;SDS011;23738;50.422;18.758;2022-08-02T00:41:44;3.80;;;3.50;;
37903;SDS011;23738;50.422;18.758;2022-08-02T00:44:16;4.00;;;3.22;;
37903;SDS011;23738;50.422;18.758;2022-08-02T00:46:45;4.37;;;3.98;;
37903;SDS011;23738;50.422;18.758;2022-08-02T00:49:11;6.35;;;4.12;;
37903;SDS011;23738;50.422;18.758;2022-08-02T00:51:39;4.65;;;4.25;;
37903;SDS011;23738;50.422;18.758;2022-08-02T00:54:06;5.30;;;4.30;;
37903;SDS011;23738;50.422;18.758;2022-08-02T00:56:32;4.28;;;3.87;;
37903;SDS011;23738;50.422;18.758;2022-08-02T00:58:59;4.17;;;3.70;;
37903;SDS011;23738;50.422;18.758;2022-08-02T01:01:25;5.87;;;3.90;;
37903;SDS011;23738;50.422;18.758;2022-08-02T01:04:11;5.28;;;3.92;;
37903;SDS011;23738;50.422;18.758;2022-08-02T01:06:39;6.33;;;4.35;;
37903;SDS011;23738;50.422;18.758;2022-08-02T01:09:07;7.67;;;3.87;;
37903;SDS011;23738;50.422;18.758;2022-08-02T01:11:34;3.80;;;3.50;;
37903;SDS011;23738;50.422;18.758;2022-08-02T01:14:05;6.22;;;4.28;;
37903;SDS011;23738;50.422;18.758;2022-08-02T01:16:38;5.00;;;3.62;;
37903;SDS011;23738;50.422;18.758;2022-08-02T01:31:22;7.50;;;3.83;;
37903;SDS011;23738;50.422;18.758;2022-08-02T01:33:56;5.03;;;3.50;;
37903;SDS011;23738;50.422;18.758;2022-08-02T01:36:22;4.47;;;4.08;;
37903;SDS011;23738;50.422;18.758;2022-08-02T01:38:52;3.70;;;3.42;;
37903;SDS011;23738;50.422;18.758;2022-08-02T01:41:20;8.95;;;3.70;;
37903;SDS011;23738;50.422;18.758;2022-08-02T01:43:50;3.87;;;3.58;;
37903;SDS011;23738;50.422;18.758;2022-08-02T01:46:20;5.10;;;4.33;;
37903;SDS011;23738;50.422;18.758;2022-08-02T01:48:47;5.53;;;4.00;;
37903;SDS011;23738;50.422;18.758;2022-08-02T01:51:15;7.65;;;4.37;;
37903;SDS011;23738;50.422;18.758;2022-08-02T01:53:44;4.40;;;4.00;;
37903;SDS011;23738;50.422;18.758;2022-08-02T01:56:12;4.23;;;3.80;;
37903;SDS011;23738;50.422;18.758;2022-08-02T01:58:40;4.78;;;3.85;;
37903;SDS011;23738;50.422;18.758;2022-08-02T02:01:08;16.10;;;7.00;;
37903;SDS011;23738;50.422;18.758;2022-08-02T02:03:35;5.55;;;5.15;;
37903;SDS011;23738;50.422;18.758;2022-08-02T02:06:04;5.15;;;4.72;;
37903;SDS011;23738;50.422;18.758;2022-08-02T02:08:33;6.83;;;4.60;;
37903;SDS011;23738;50.422;18.758;2022-08-02T02:11:02;13.95;;;5.65;;
37903;SDS011;23738;50.422;18.758;2022-08-02T02:13:29;6.30;;;5.70;;
37903;SDS011;23738;50.422;18.758;2022-08-02T02:15:56;6.47;;;5.92;;
37903;SDS011;23738;50.422;18.758;2022-08-02T02:18:26;7.72;;;5.37;;
37903;SDS011;23738;50.422;18.758;2022-08-02T02:20:55;5.85;;;5.35;;
37903;SDS011;23738;50.422;18.758;2022-08-02T02:23:21;6.37;;;5.83;;
37903;SDS011;23738;50.422;18.758;2022-08-02T02:25:47;6.75;;;5.83;;
37903;SDS011;23738;50.422;18.758;2022-08-02T02:28:22;9.10;;;5.70;;
37903;SDS011;23738;50.422;18.758;2022-08-02T02:30:48;5.30;;;4.87;;
37903;SDS011;23738;50.422;18.758;2022-08-02T02:33:17;6.75;;;6.10;;
37903;SDS011;23738;50.422;18.758;2022-08-02T02:35:45;5.30;;;4.45;;
37903;SDS011;23738;50.422;18.758;2022-08-02T02:38:15;5.97;;;5.15;;
37903;SDS011;23738;50.422;18.758;2022-08-02T02:40:44;8.53;;;6.25;;
37903;SDS011;23738;50.422;18.758;2022-08-02T02:43:11;7.55;;;6.53;;
37903;SDS011;23738;50.422;18.758;2022-08-02T02:45:39;9.48;;;7.15;;
37903;SDS011;23738;50.422;18.758;2022-08-02T02:48:06;8.65;;;6.33;;
37903;SDS011;23738;50.422;18.758;2022-08-02T02:50:34;6.20;;;5.60;;
37903;SDS011;23738;50.422;18.758;2022-08-02T02:53:01;5.92;;;5.42;;
37903;SDS011;23738;50.422;18.758;2022-08-02T02:55:27;5.72;;;5.22;;
37903;SDS011;23738;50.422;18.758;2022-08-02T02:57:54;6.28;;;5.78;;
37903;SDS011;23738;50.422;18.758;2022-08-02T03:00:20;6.72;;;5.83;;
37903;SDS011;23738;50.422;18.758;2022-08-02T03:02:49;9.18;;;6.60;;
37903;SDS011;23738;50.422;18.758;2022-08-02T03:05:15;6.80;;;5.45;;
37903;SDS011;23738;50.422;18.758;2022-08-02T03:07:41;8.08;;;5.00;;
37903;SDS011;23738;50.422;18.758;2022-08-02T03:10:07;7.08;;;6.00;;
37903;SDS011;23738;50.422;18.758;2022-08-02T03:12:34;6.58;;;6.00;;
37903;SDS011;23738;50.422;18.758;2022-08-02T03:15:02;7.12;;;6.42;;
37903;SDS011;23738;50.422;18.758;2022-08-02T03:17:41;9.00;;;7.97;;
37903;SDS011;23738;50.422;18.758;2022-08-02T03:20:10;12.40;;;7.42;;
37903;SDS011;23738;50.422;18.758;2022-08-02T03:22:38;9.70;;;5.70;;
37903;SDS011;23738;50.422;18.758;2022-08-02T03:25:06;8.43;;;7.62;;
37903;SDS011;23738;50.422;18.758;2022-08-02T03:27:33;8.43;;;7.72;;
37903;SDS011;23738;50.422;18.758;2022-08-02T03:29:59;8.88;;;8.08;;
37903;SDS011;23738;50.422;18.758;2022-08-02T03:32:25;14.83;;;8.90;;
37903;SDS011;23738;50.422;18.758;2022-08-02T03:34:51;9.83;;;8.98;;
37903;SDS011;23738;50.422;18.758;2022-08-02T03:37:17;7.97;;;7.35;;
37903;SDS011;23738;50.422;18.758;2022-08-02T03:39:45;8.20;;;7.60;;
37903;SDS011;23738;50.422;18.758;2022-08-02T03:42:12;9.98;;;9.18;;
37903;SDS011;23738;50.422;18.758;2022-08-02T03:44:39;9.18;;;8.40;;
37903;SDS011;23738;50.422;18.758;2022-08-02T03:47:06;9.40;;;8.65;;
37903;SDS011;23738;50.422;18.758;2022-08-02T03:49:33;10.32;;;9.00;;
37903;SDS011;23738;50.422;18.758;2022-08-02T03:52:00;9.23;;;8.43;;
37903;SDS011;23738;50.422;18.758;2022-08-02T03:54:27;8.45;;;7.62;;
37903;SDS011;23738;50.422;18.758;2022-08-02T03:56:53;9.25;;;8.45;;
37903;SDS011;23738;50.422;18.758;2022-08-02T03:59:19;10.55;;;9.00;;
37903;SDS011;23738;50.422;18.758;2022-08-02T04:01:45;10.10;;;9.20;;
37903;SDS011;23738;50.422;18.758;2022-08-02T04:04:11;10.50;;;9.60;;
37903;SDS011;23738;50.422;18.758;2022-08-02T04:06:36;8.55;;;7.85;;
37903;SDS011;23738;50.422;18.758;2022-08-02T04:09:02;8.88;;;8.08;;
37903;SDS011;23738;50.422;18.758;2022-08-02T04:11:30;8.25;;;7.55;;
37903;SDS011;23738;50.422;18.758;2022-08-02T04:14:00;9.43;;;8.53;;
37903;SDS011;23738;50.422;18.758;2022-08-02T04:16:45;9.00;;;8.18;;
37903;SDS011;23738;50.422;18.758;2022-08-02T04:22:08;10.75;;;7.58;;
37903;SDS011;23738;50.422;18.758;2022-08-02T04:24:43;8.10;;;7.30;;
37903;SDS011;23738;50.422;18.758;2022-08-02T04:27:12;8.93;;;8.13;;
37903;SDS011;23738;50.422;18.758;2022-08-02T04:29:40;8.48;;;7.87;;
37903;SDS011;23738;50.422;18.758;2022-08-02T04:32:06;9.48;;;8.68;;
37903;SDS011;23738;50.422;18.758;2022-08-02T04:34:33;8.70;;;7.90;;
37903;SDS011;23738;50.422;18.758;2022-08-02T04:36:59;8.98;;;8.18;;
37903;SDS011;23738;50.422;18.758;2022-08-02T04:39:25;8.30;;;7.70;;
37903;SDS011;23738;50.422;18.758;2022-08-02T04:41:52;9.45;;;8.48;;
37903;SDS011;23738;50.422;18.758;2022-08-02T04:44:18;9.83;;;8.60;;
37903;SDS011;23738;50.422;18.758;2022-08-02T04:46:44;10.65;;;9.53;;
37903;SDS011;23738;50.422;18.758;2022-08-02T04:49:10;10.10;;;9.20;;
37903;SDS011;23738;50.422;18.758;2022-08-02T04:51:37;8.90;;;7.95;;
37903;SDS011;23738;50.422;18.758;2022-08-02T04:54:05;9.65;;;8.63;;
37903;SDS011;23738;50.422;18.758;2022-08-02T04:56:32;10.35;;;9.48;;
37903;SDS011;23738;50.422;18.758;2022-08-02T04:58:58;10.20;;;9.30;;
37903;SDS011;23738;50.422;18.758;2022-08-02T05:01:24;11.53;;;10.50;;
37903;SDS011;23738;50.422;18.758;2022-08-02T05:03:50;10.15;;;9.25;;
37903;SDS011;23738;50.422;18.758;2022-08-02T05:06:16;10.38;;;9.23;;
37903;SDS011;23738;50.422;18.758;2022-08-02T05:08:44;10.35;;;9.55;;
37903;SDS011;23738;50.422;18.758;2022-08-02T05:11:11;12.00;;;11.00;;
37903;SDS011;23738;50.422;18.758;2022-08-02T05:13:37;13.78;;;12.33;;
37903;SDS011;23738;50.422;18.758;2022-08-02T05:16:06;14.10;;;12.88;;
37903;SDS011;23738;50.422;18.758;2022-08-02T05:18:31;12.43;;;11.28;;
37903;SDS011;23738;50.422;18.758;2022-08-02T05:20:57;11.95;;;11.12;;
37903;SDS011;23738;50.422;18.758;2022-08-02T05:23:23;11.70;;;10.70;;
37903;SDS011;23738;50.422;18.758;2022-08-02T05:25:49;12.45;;;11.43;;
37903;SDS011;23738;50.422;18.758;2022-08-02T05:28:15;12.53;;;11.53;;
37903;SDS011;23738;50.422;18.758;2022-08-02T05:30:41;14.43;;;13.22;;
37903;SDS011;23738;50.422;18.758;2022-08-02T05:33:08;12.23;;;10.98;;
37903;SDS011;23738;50.422;18.758;2022-08-02T05:35:34;10.90;;;9.43;;
37903;SDS011;23738;50.422;18.758;2022-08-02T05:37:59;11.68;;;10.18;;
37903;SDS011;23738;50.422;18.758;2022-08-02T05:40:25;17.20;;;9.80;;
37903;SDS011;23738;50.422;18.758;2022-08-02T05:42:52;12.35;;;9.73;;
37903;SDS011;23738;50.422;18.758;2022-08-02T05:45:19;11.75;;;10.75;;
37903;SDS011;23738;50.422;18.758;2022-08-02T05:47:45;11.55;;;10.65;;
37903;SDS011;23738;50.422;18.758;2022-08-02T05:50:10;11.30;;;10.40;;
37903;SDS011;23738;50.422;18.758;2022-08-02T05:52:41;13.15;;;11.03;;
37903;SDS011;23738;50.422;18.758;2022-08-02T05:55:24;12.30;;;11.30;;
37903;SDS011;23738;50.422;18.758;2022-08-02T06:00:54;13.95;;;12.85;;
37903;SDS011;23738;50.422;18.758;2022-08-02T06:03:25;13.88;;;12.43;;
37903;SDS011;23738;50.422;18.758;2022-08-02T06:06:13;11.75;;;10.85;;
37903;SDS011;23738;50.422;18.758;2022-08-02T06:08:46;12.07;;;10.98;;
37903;SDS011;23738;50.422;18.758;2022-08-02T06:11:16;12.98;;;11.93;;
37903;SDS011;23738;50.422;18.758;2022-08-02T06:13:47;13.68;;;12.07;;
37903;SDS011;23738;50.422;18.758;2022-08-02T06:16:13;13.98;;;12.55;;
37903;SDS011;23738;50.422;18.758;2022-08-02T06:18:39;12.30;;;11.20;;
37903;SDS011;23738;50.422;18.758;2022-08-02T06:21:07;12.25;;;11.33;;
37903;SDS011;23738;50.422;18.758;2022-08-02T06:23:35;11.80;;;10.93;;
37903;SDS011;23738;50.422;18.758;2022-08-02T06:26:06;13.20;;;12.10;;
37903;SDS011;23738;50.422;18.758;2022-08-02T06:28:37;12.30;;;11.40;;
37903;SDS011;23738;50.422;18.758;2022-08-02T06:31:04;13.60;;;12.70;;
37903;SDS011;23738;50.422;18.758;2022-08-02T06:33:31;13.50;;;12.30;;
37903;SDS011;23738;50.422;18.758;2022-08-02T06:36:02;12.65;;;11.65;;
37903;SDS011;23738;50.422;18.758;2022-08-02T06:38:42;12.63;;;11.73;;
37903;SDS011;23738;50.422;18.758;2022-08-02T06:41:08;13.18;;;12.15;;
37903;SDS011;23738;50.422;18.758;2022-08-02T06:46:15;15.07;;;13.97;;
37903;SDS011;23738;50.422;18.758;2022-08-02T06:48:41;14.13;;;12.95;;
37903;SDS011;23738;50.422;18.758;2022-08-02T06:51:07;13.30;;;12.30;;
37903;SDS011;23738;50.422;18.758;2022-08-02T06:53:33;12.63;;;11.73;;
37903;SDS011;23738;50.422;18.758;2022-08-02T06:55:58;13.50;;;12.33;;
37903;SDS011;23738;50.422;18.758;2022-08-02T06:58:24;13.53;;;12.63;;
37903;SDS011;23738;50.422;18.758;2022-08-02T07:00:50;13.50;;;12.63;;
37903;SDS011;23738;50.422;18.758;2022-08-02T07:03:16;13.72;;;12.58;;
37903;SDS011;23738;50.422;18.758;2022-08-02T07:05:43;12.88;;;11.70;;
37903;SDS011;23738;50.422;18.758;2022-08-02T07:08:10;13.03;;;11.78;;
37903;SDS011;23738;50.422;18.758;2022-08-02T07:10:36;12.43;;;11.63;;
37903;SDS011;23738;50.422;18.758;2022-08-02T07:13:02;12.03;;;11.22;;
37903;SDS011;23738;50.422;18.758;2022-08-02T07:15:28;13.20;;;12.07;;
37903;SDS011;23738;50.422;18.758;2022-08-02T07:17:54;13.05;;;12.13;;
37903;SDS011;23738;50.422;18.758;2022-08-02T07:20:19;12.23;;;11.03;;
37903;SDS011;23738;50.422;18.758;2022-08-02T07:22:45;11.25;;;10.43;;
37903;SDS011;23738;50.422;18.758;2022-08-02T07:25:11;11.20;;;10.13;;
37903;SDS011;23738;50.422;18.758;2022-08-02T07:27:37;11.83;;;10.72;;
37903;SDS011;23738;50.422;18.758;2022-08-02T07:30:03;18.52;;;10.30;;
37903;SDS011;23738;50.422;18.758;2022-08-02T07:32:31;10.75;;;9.95;;
37903;SDS011;23738;50.422;18.758;2022-08-02T07:34:58;9.88;;;9.23;;
37903;SDS011;23738;50.422;18.758;2022-08-02T07:37:26;8.93;;;8.33;;
37903;SDS011;23738;50.422;18.758;2022-08-02T07:39:54;9.08;;;8.48;;
37903;SDS011;23738;50.422;18.758;2022-08-02T07:42:20;9.08;;;7.53;;
37903;SDS011;23738;50.422;18.758;2022-08-02T07:44:46;8.35;;;7.65;;
37903;SDS011;23738;50.422;18.758;2022-08-02T07:47:12;8.73;;;8.03;;
37903;SDS011;23738;50.422;18.758;2022-08-02T07:49:38;8.38;;;7.62;;
37903;SDS011;23738;50.422;18.758;2022-08-02T07:52:04;7.80;;;7.15;;
37903;SDS011;23738;50.422;18.758;2022-08-02T07:54:30;7.35;;;6.72;;
37903;SDS011;23738;50.422;18.758;2022-08-02T07:56:56;7.58;;;6.97;;
37903;SDS011;23738;50.422;18.758;2022-08-02T07:59:22;8.75;;;6.72;;
37903;SDS011;23738;50.422;18.758;2022-08-02T08:01:48;7.42;;;6.72;;
37903;SDS011;23738;50.422;18.758;2022-08-02T08:04:15;8.50;;;7.25;;
37903;SDS011;23738;50.422;18.758;2022-08-02T08:06:41;7.33;;;6.72;;
37903;SDS011;23738;50.422;18.758;2022-08-02T08:09:12;6.85;;;5.92;;
37903;SDS011;23738;50.422;18.758;2022-08-02T08:11:35;6.47;;;5.87;;
37903;SDS011;23738;50.422;18.758;2022-08-02T08:14:02;6.17;;;5.78;;
37903;SDS011;23738;50.422;18.758;2022-08-02T08:16:31;6.20;;;5.70;;
37903;SDS011;23738;50.422;18.758;2022-08-02T08:19:00;7.55;;;5.62;;
37903;SDS011;23738;50.422;18.758;2022-08-02T08:21:26;6.15;;;5.50;;
37903;SDS011;23738;50.422;18.758;2022-08-02T08:23:54;6.10;;;5.47;;
37903;SDS011;23738;50.422;18.758;2022-08-02T08:26:21;4.65;;;4.25;;
37903;SDS011;23738;50.422;18.758;2022-08-02T08:28:47;4.70;;;4.28;;
37903;SDS011;23738;50.422;18.758;2022-08-02T08:31:13;5.25;;;4.58;;
37903;SDS011;23738;50.422;18.758;2022-08-02T08:33:39;5.62;;;5.05;;
37903;SDS011;23738;50.422;18.758;2022-08-02T08:36:05;4.85;;;4.45;;
37903;SDS011;23738;50.422;18.758;2022-08-02T08:38:32;4.97;;;4.60;;
37903;SDS011;23738;50.422;18.758;2022-08-02T08:40:58;10.20;;;4.47;;
37903;SDS011;23738;50.422;18.758;2022-08-02T08:43:24;5.22;;;4.37;;
37903;SDS011;23738;50.422;18.758;2022-08-02T08:45:50;4.85;;;4.45;;
37903;SDS011;23738;50.422;18.758;2022-08-02T08:48:16;4.97;;;4.20;;
37903;SDS011;23738;50.422;18.758;2022-08-02T08:50:53;6.87;;;3.80;;
37903;SDS011;23738;50.422;18.758;2022-08-02T08:53:23;4.47;;;4.08;;
37903;SDS011;23738;50.422;18.758;2022-08-02T08:55:51;5.58;;;3.77;;
37903;SDS011;23738;50.422;18.758;2022-08-02T08:58:20;5.75;;;3.37;;
37903;SDS011;23738;50.422;18.758;2022-08-02T09:00:47;4.78;;;3.90;;
37903;SDS011;23738;50.422;18.758;2022-08-02T09:03:13;4.05;;;3.65;;
37903;SDS011;23738;50.422;18.758;2022-08-02T09:05:39;4.65;;;3.37;;
37903;SDS011;23738;50.422;18.758;2022-08-02T09:08:10;5.47;;;3.00;;
37903;SDS011;23738;50.422;18.758;2022-08-02T09:10:43;6.78;;;3.22;;
37903;SDS011;23738;50.422;18.758;2022-08-02T09:16:01;4.97;;;3.60;;
37903;SDS011;23738;50.422;18.758;2022-08-02T09:18:32;3.90;;;3.60;;
37903;SDS011;23738;50.422;18.758;2022-08-02T09:21:08;5.47;;;3.60;;
37903;SDS011;23738;50.422;18.758;2022-08-02T09:23:41;3.85;;;3.55;;
37903;SDS011;23738;50.422;18.758;2022-08-02T09:26:16;3.72;;;3.30;;
37903;SDS011;23738;50.422;18.758;2022-08-02T09:28:45;5.75;;;3.40;;
37903;SDS011;23738;50.422;18.758;2022-08-02T09:31:16;3.30;;;3.00;;
37903;SDS011;23738;50.422;18.758;2022-08-02T09:33:49;4.33;;;3.30;;
37903;SDS011;23738;50.422;18.758;2022-08-02T09:36:18;3.45;;;3.12;;
37903;SDS011;23738;50.422;18.758;2022-08-02T09:38:56;3.62;;;2.95;;
37903;SDS011;23738;50.422;18.758;2022-08-02T09:41:26;4.37;;;3.22;;
37903;SDS011;23738;50.422;18.758;2022-08-02T09:43:55;3.52;;;3.00;;
37903;SDS011;23738;50.422;18.758;2022-08-02T09:46:24;4.53;;;3.67;;
37903;SDS011;23738;50.422;18.758;2022-08-02T09:48:58;4.37;;;3.30;;
37903;SDS011;23738;50.422;18.758;2022-08-02T09:51:29;3.10;;;2.80;;
37903;SDS011;23738;50.422;18.758;2022-08-02T09:54:02;3.47;;;3.17;;
37903;SDS011;23738;50.422;18.758;2022-08-02T09:59:20;3.27;;;2.70;;
37903;SDS011;23738;50.422;18.758;2022-08-02T10:01:48;3.98;;;2.72;;
37903;SDS011;23738;50.422;18.758;2022-08-02T10:04:20;3.60;;;2.77;;
37903;SDS011;23738;50.422;18.758;2022-08-02T10:06:48;6.33;;;2.85;;
37903;SDS011;23738;50.422;18.758;2022-08-02T10:09:16;8.58;;;2.95;;
37903;SDS011;23738;50.422;18.758;2022-08-02T10:11:43;3.58;;;2.70;;
37903;SDS011;23738;50.422;18.758;2022-08-02T10:14:10;5.25;;;2.90;;
37903;SDS011;23738;50.422;18.758;2022-08-02T10:16:37;2.92;;;2.55;;
37903;SDS011;23738;50.422;18.758;2022-08-02T10:19:05;8.08;;;2.87;;
37903;SDS011;23738;50.422;18.758;2022-08-02T10:24:14;4.42;;;2.47;;
37903;SDS011;23738;50.422;18.758;2022-08-02T10:26:43;3.40;;;2.37;;
37903;SDS011;23738;50.422;18.758;2022-08-02T10:29:14;4.85;;;2.40;;
37903;SDS011;23738;50.422;18.758;2022-08-02T10:34:16;4.12;;;2.55;;
37903;SDS011;23738;50.422;18.758;2022-08-02T10:36:45;3.55;;;2.40;;
37903;SDS011;23738;50.422;18.758;2022-08-02T10:39:12;2.98;;;2.40;;
37903;SDS011;23738;50.422;18.758;2022-08-02T10:41:48;4.67;;;2.70;;
37903;SDS011;23738;50.422;18.758;2022-08-02T10:44:20;2.80;;;2.47;;
37903;SDS011;23738;50.422;18.758;2022-08-02T10:46:52;3.50;;;2.67;;
37903;SDS011;23738;50.422;18.758;2022-08-02T10:49:50;3.87;;;2.50;;
37903;SDS011;23738;50.422;18.758;2022-08-02T10:52:21;2.37;;;2.20;;
37903;SDS011;23738;50.422;18.758;2022-08-02T10:55:09;4.87;;;2.50;;
37903;SDS011;23738;50.422;18.758;2022-08-02T10:57:38;2.22;;;2.02;;
37903;SDS011;23738;50.422;18.758;2022-08-02T11:00:11;5.80;;;2.60;;
37903;SDS011;23738;50.422;18.758;2022-08-02T11:02:50;2.58;;;1.92;;
37903;SDS011;23738;50.422;18.758;2022-08-02T11:05:28;2.80;;;2.02;;
37903;SDS011;23738;50.422;18.758;2022-08-02T11:07:57;2.95;;;1.92;;
37903;SDS011;23738;50.422;18.758;2022-08-02T11:13:10;4.05;;;2.00;;
37903;SDS011;23738;50.422;18.758;2022-08-02T11:18:21;3.20;;;1.90;;
37903;SDS011;23738;50.422;18.758;2022-08-02T11:23:50;3.20;;;1.70;;
37903;SDS011;23738;50.422;18.758;2022-08-02T11:29:01;8.53;;;2.17;;
37903;SDS011;23738;50.422;18.758;2022-08-02T11:31:29;4.87;;;1.80;;
37903;SDS011;23738;50.422;18.758;2022-08-02T11:34:06;5.33;;;2.02;;
37903;SDS011;23738;50.422;18.758;2022-08-02T11:36:33;4.17;;;1.87;;
37903;SDS011;23738;50.422;18.758;2022-08-02T11:39:16;4.85;;;2.20;;
37903;SDS011;23738;50.422;18.758;2022-08-02T11:41:42;7.28;;;2.50;;
37903;SDS011;23738;50.422;18.758;2022-08-02T11:44:21;6.25;;;2.30;;
37903;SDS011;23738;50.422;18.758;2022-08-02T11:47:01;2.42;;;2.17;;
37903;SDS011;23738;50.422;18.758;2022-08-02T11:49:26;3.02;;;1.82;;
37903;SDS011;23738;50.422;18.758;2022-08-02T11:51:53;5.37;;;1.90;;
37903;SDS011;23738;50.422;18.758;2022-08-02T11:54:28;5.30;;;1.90;;
37903;SDS011;23738;50.422;18.758;2022-08-02T11:57:12;2.35;;;1.67;;
37903;SDS011;23738;50.422;18.758;2022-08-02T11:59:45;6.00;;;1.87;;
37903;SDS011;23738;50.422;18.758;2022-08-02T12:02:13;3.55;;;1.62;;
37903;SDS011;23738;50.422;18.758;2022-08-02T12:04:40;3.37;;;1.98;;
37903;SDS011;23738;50.422;18.758;2022-08-02T12:07:07;5.20;;;1.80;;
37903;SDS011;23738;50.422;18.758;2022-08-02T12:09:34;3.40;;;1.65;;
37903;SDS011;23738;50.422;18.758;2022-08-02T12:12:01;2.77;;;1.50;;
37903;SDS011;23738;50.422;18.758;2022-08-02T12:14:29;3.15;;;1.62;;
37903;SDS011;23738;50.422;18.758;2022-08-02T12:16:56;3.58;;;2.02;;
37903;SDS011;23738;50.422;18.758;2022-08-02T12:19:41;3.10;;;1.30;;
37903;SDS011;23738;50.422;18.758;2022-08-02T12:22:08;2.58;;;1.50;;
37903;SDS011;23738;50.422;18.758;2022-08-02T12:24:47;1.50;;;1.37;;
37903;SDS011;23738;50.422;18.758;2022-08-02T12:30:05;2.00;;;1.47;;
37903;SDS011;23738;50.422;18.758;2022-08-02T12:32:36;1.85;;;1.50;;
37903;SDS011;23738;50.422;18.758;2022-08-02T12:37:41;8.28;;;1.70;;
37903;SDS011;23738;50.422;18.758;2022-08-02T12:40:31;3.85;;;1.67;;
37903;SDS011;23738;50.422;18.758;2022-08-02T12:42:58;3.92;;;1.87;;
37903;SDS011;23738;50.422;18.758;2022-08-02T12:45:29;6.28;;;1.57;;
37903;SDS011;23738;50.422;18.758;2022-08-02T12:47:58;4.80;;;1.47;;
37903;SDS011;23738;50.422;18.758;2022-08-02T12:50:27;2.05;;;1.32;;
37903;SDS011;23738;50.422;18.758;2022-08-02T12:53:13;1.92;;;1.10;;
37903;SDS011;23738;50.422;18.758;2022-08-02T12:58:23;3.75;;;1.30;;
37903;SDS011;23738;50.422;18.758;2022-08-02T13:00:57;1.55;;;1.40;;
37903;SDS011;23738;50.422;18.758;2022-08-02T13:03:26;2.65;;;1.40;;
37903;SDS011;23738;50.422;18.758;2022-08-02T13:05:52;2.92;;;1.10;;
37903;SDS011;23738;50.422;18.758;2022-08-02T13:08:18;2.90;;;1.30;;
37903;SDS011;23738;50.422;18.758;2022-08-02T13:10:44;1.82;;;1.12;;
37903;SDS011;23738;50.422;18.758;2022-08-02T13:13:10;1.85;;;1.10;;
37903;SDS011;23738;50.422;18.758;2022-08-02T13:15:36;2.70;;;1.40;;
37903;SDS011;23738;50.422;18.758;2022-08-02T13:18:02;2.35;;;1.20;;
37903;SDS011;23738;50.422;18.758;2022-08-02T13:20:28;3.83;;;1.30;;
37903;SDS011;23738;50.422;18.758;2022-08-02T13:22:55;5.05;;;1.42;;
37903;SDS011;23738;50.422;18.758;2022-08-02T13:25:21;3.70;;;1.37;;
37903;SDS011;23738;50.422;18.758;2022-08-02T13:27:50;7.15;;;1.55;;
37903;SDS011;23738;50.422;18.758;2022-08-02T13:30:17;2.10;;;1.10;;
37903;SDS011;23738;50.422;18.758;2022-08-02T13:32:44;1.60;;;1.00;;
37903;SDS011;23738;50.422;18.758;2022-08-02T13:35:10;2.50;;;1.30;;
37903;SDS011;23738;50.422;18.758;2022-08-02T13:37:36;2.90;;;1.40;;
37903;SDS011;23738;50.422;18.758;2022-08-02T13:40:02;3.17;;;1.12;;
37903;SDS011;23738;50.422;18.758;2022-08-02T13:42:29;2.65;;;1.22;;
37903;SDS011;23738;50.422;18.758;2022-08-02T13:44:55;1.87;;;1.10;;
37903;SDS011;23738;50.422;18.758;2022-08-02T13:47:21;4.42;;;1.02;;
37903;SDS011;23738;50.422;18.758;2022-08-02T13:49:46;1.90;;;1.10;;
37903;SDS011;23738;50.422;18.758;2022-08-02T13:52:14;2.80;;;1.20;;
37903;SDS011;23738;50.422;18.758;2022-08-02T13:54:39;1.82;;;1.12;;
37903;SDS011;23738;50.422;18.758;2022-08-02T13:57:05;2.40;;;1.55;;
37903;SDS011;23738;50.422;18.758;2022-08-02T13:59:31;2.47;;;1.20;;
37903;SDS011;23738;50.422;18.758;2022-08-02T14:01:57;2.47;;;1.40;;
37903;SDS011;23738;50.422;18.758;2022-08-02T14:04:24;2.40;;;1.40;;
37903;SDS011;23738;50.422;18.758;2022-08-02T14:06:50;1.85;;;1.30;;
37903;SDS011;23738;50.422;18.758;2022-08-02T14:09:17;5.50;;;1.25;;
37903;SDS011;23738;50.422;18.758;2022-08-02T14:11:43;3.33;;;1.40;;
37903;SDS011;23738;50.422;18.758;2022-08-02T14:14:10;3.55;;;1.37;;
37903;SDS011;23738;50.422;18.758;2022-08-02T14:16:36;1.47;;;1.10;;
37903;SDS011;23738;50.422;18.758;2022-08-02T14:19:02;5.47;;;1.65;;
37903;SDS011;23738;50.422;18.758;2022-08-02T14:21:29;1.87;;;1.25;;
37903;SDS011;23738;50.422;18.758;2022-08-02T14:23:55;2.80;;;1.30;;
37903;SDS011;23738;50.422;18.758;2022-08-02T14:26:20;4.22;;;1.50;;
37903;SDS011;23738;50.422;18.758;2022-08-02T14:28:46;3.30;;;1.35;;
37903;SDS011;23738;50.422;18.758;2022-08-02T14:31:12;2.98;;;1.30;;
37903;SDS011;23738;50.422;18.758;2022-08-02T14:33:38;2.70;;;1.65;;
37903;SDS011;23738;50.422;18.758;2022-08-02T14:36:04;2.08;;;1.30;;
37903;SDS011;23738;50.422;18.758;2022-08-02T14:38:31;2.35;;;1.27;;
37903;SDS011;23738;50.422;18.758;2022-08-02T14:40:58;3.22;;;1.37;;
37903;SDS011;23738;50.422;18.758;2022-08-02T14:43:24;2.02;;;1.20;;
37903;SDS011;23738;50.422;18.758;2022-08-02T14:46:08;1.83;;;1.47;;
37903;SDS011;23738;50.422;18.758;2022-08-02T14:48:34;1.70;;;1.30;;
37903;SDS011;23738;50.422;18.758;2022-08-02T14:51:00;6.50;;;1.50;;
37903;SDS011;23738;50.422;18.758;2022-08-02T14:53:26;3.65;;;1.45;;
37903;SDS011;23738;50.422;18.758;2022-08-02T14:55:51;3.12;;;1.35;;
37903;SDS011;23738;50.422;18.758;2022-08-02T14:58:17;2.55;;;1.20;;
37903;SDS011;23738;50.422;18.758;2022-08-02T15:00:43;6.85;;;1.40;;
37903;SDS011;23738;50.422;18.758;2022-08-02T15:03:09;2.40;;;1.40;;
37903;SDS011;23738;50.422;18.758;2022-08-02T15:05:37;2.27;;;1.40;;
37903;SDS011;23738;50.422;18.758;2022-08-02T15:08:03;3.02;;;1.32;;
37903;SDS011;23738;50.422;18.758;2022-08-02T15:10:30;2.62;;;1.40;;
37903;SDS011;23738;50.422;18.758;2022-08-02T15:12:56;2.95;;;1.40;;
37903;SDS011;23738;50.422;18.758;2022-08-02T15:15:22;2.77;;;1.50;;
37903;SDS011;23738;50.422;18.758;2022-08-02T15:17:50;1.55;;;1.22;;
37903;SDS011;23738;50.422;18.758;2022-08-02T15:20:16;5.10;;;1.30;;
37903;SDS011;23738;50.422;18.758;2022-08-02T15:22:41;3.10;;;1.47;;
37903;SDS011;23738;50.422;18.758;2022-08-02T15:25:07;4.10;;;1.20;;
37903;SDS011;23738;50.422;18.758;2022-08-02T15:27:33;3.00;;;1.30;;